createdAt,value
2018-03-25T00:00:59.403Z,56.45
2018-03-25T00:03:27.830Z,61.75
2018-03-25T00:05:56.279Z,63.33
2018-03-25T00:08:24.895Z,60.30
2018-03-25T00:10:53.611Z,50.83
2018-03-25T00:13:22.702Z,54.42
2018-03-25T00:15:52.776Z,57.60
2018-03-25T00:18:22.625Z,66.62
2018-03-25T00:20:51.437Z,66.93
2018-03-25T00:23:19.872Z,54.83
2018-03-25T00:25:48.577Z,50.00
2018-03-25T00:28:17.270Z,55.05
2018-03-25T00:30:46.273Z,59.20
2018-03-25T00:33:15.628Z,59.03
2018-03-25T00:35:44.005Z,54.55
2018-03-25T00:38:12.384Z,52.97
2018-03-25T00:40:40.793Z,63.63
2018-03-25T00:43:09.175Z,65.80
2018-03-25T00:45:37.575Z,52.30
2018-03-25T00:48:05.958Z,60.53
2018-03-25T00:50:34.555Z,58.00
2018-03-25T00:53:02.926Z,57.38
2018-03-25T00:55:31.318Z,56.85
2018-03-25T00:58:00.511Z,53.55
2018-03-25T01:00:28.890Z,57.08
2018-03-25T01:02:57.298Z,52.13
2018-03-25T01:05:25.675Z,50.70
2018-03-25T01:07:54.044Z,50.10
2018-03-25T01:10:22.460Z,53.90
2018-03-25T01:12:50.841Z,50.55
2018-03-25T01:15:19.236Z,48.33
2018-03-25T01:17:47.627Z,47.65
2018-03-25T01:20:16.080Z,49.88
2018-03-25T01:22:46.764Z,51.65
2018-03-25T01:25:15.948Z,54.17
2018-03-25T01:27:44.350Z,58.20
2018-03-25T01:30:12.737Z,62.65
2018-03-25T01:32:41.144Z,54.85
2018-03-25T01:35:09.523Z,54.78
2018-03-25T01:37:37.938Z,53.22
2018-03-25T01:40:06.314Z,66.78
2018-03-25T01:42:34.710Z,62.10
2018-03-25T01:45:03.120Z,59.17
2018-03-25T01:47:31.530Z,53.92
2018-03-25T01:49:59.902Z,58.72
2018-03-25T01:52:28.310Z,59.20
2018-03-25T01:54:56.690Z,69.32
2018-03-25T01:57:25.064Z,59.83
2018-03-25T01:59:54.235Z,55.12
2018-03-25T02:02:22.607Z,62.40
2018-03-25T02:04:51.001Z,69.32
2018-03-25T02:07:19.401Z,56.42
2018-03-25T02:09:47.802Z,56.15
2018-03-25T02:12:17.012Z,55.50
2018-03-25T02:14:45.398Z,49.63
2018-03-25T02:17:13.781Z,62.80
2018-03-25T02:19:42.160Z,57.62
2018-03-25T02:22:10.564Z,56.35
2018-03-25T02:24:38.947Z,58.72
2018-03-25T02:27:07.350Z,52.00
2018-03-25T02:29:36.508Z,42.17
2018-03-25T02:34:39.432Z,59.05
2018-03-25T02:37:08.003Z,60.45
2018-03-25T02:39:36.387Z,59.83
2018-03-25T02:42:04.787Z,64.47
2018-03-25T02:44:34.361Z,61.92
2018-03-25T02:47:02.739Z,57.72
2018-03-25T02:49:31.142Z,66.50
2018-03-25T02:51:59.534Z,51.67
2018-03-25T02:54:28.063Z,51.90
2018-03-25T02:56:56.444Z,52.78
2018-03-25T02:59:24.829Z,59.05
2018-03-25T03:01:53.231Z,56.95
2018-03-25T03:04:21.610Z,59.75
2018-03-25T03:06:50.028Z,59.58
2018-03-25T03:09:19.227Z,62.85
2018-03-25T03:11:48.572Z,59.22
2018-03-25T03:14:16.961Z,61.72
2018-03-25T03:16:45.343Z,58.28
2018-03-25T03:19:13.759Z,47.45
2018-03-25T03:21:42.895Z,55.08
2018-03-25T03:24:11.298Z,53.53
2018-03-25T03:26:39.679Z,50.63
2018-03-25T03:29:08.091Z,52.25
2018-03-25T03:31:37.230Z,46.72
2018-03-25T03:34:05.648Z,58.28
2018-03-25T03:36:34.018Z,48.85
2018-03-25T03:39:02.421Z,60.25
2018-03-25T03:41:31.567Z,48.17
2018-03-25T03:44:00.052Z,60.67
2018-03-25T03:46:28.426Z,59.10
2018-03-25T03:48:56.834Z,57.50
2018-03-25T03:51:25.218Z,56.03
2018-03-25T03:53:55.129Z,46.80
2018-03-25T03:56:23.507Z,44.88
2018-03-25T03:58:52.168Z,46.72
2018-03-25T04:01:20.567Z,53.92
2018-03-25T04:03:48.946Z,48.40
2018-03-25T04:06:17.365Z,52.08
2018-03-25T04:08:45.737Z,46.70
2018-03-25T04:11:14.903Z,51.78
2018-03-25T04:13:43.278Z,53.10
2018-03-25T04:16:11.696Z,42.17
2018-03-25T04:18:40.089Z,46.15
2018-03-25T04:21:09.505Z,54.90
2018-03-25T04:23:37.881Z,46.92
2018-03-25T04:26:06.251Z,49.83
2018-03-25T04:28:34.650Z,57.60
2018-03-25T04:31:03.037Z,55.10
2018-03-25T04:33:31.450Z,54.38
2018-03-25T04:36:00.591Z,47.95
2018-03-25T04:38:28.994Z,51.40
2018-03-25T04:40:57.374Z,53.40
2018-03-25T04:43:25.779Z,56.63
2018-03-25T04:45:54.206Z,53.42
2018-03-25T04:48:24.165Z,60.90
2018-03-25T04:50:53.057Z,51.55
2018-03-25T04:53:21.913Z,57.28
2018-03-25T04:55:51.740Z,46.33
2018-03-25T04:58:21.620Z,45.88
2018-03-25T05:00:50.616Z,50.28
2018-03-25T05:03:19.755Z,55.45
2018-03-25T05:05:49.654Z,55.10
2018-03-25T05:08:18.530Z,60.63
2018-03-25T05:10:47.967Z,61.28
2018-03-25T05:13:16.950Z,49.33
2018-03-25T05:15:45.330Z,51.97
2018-03-25T05:18:13.740Z,46.20
2018-03-25T05:20:42.887Z,51.28
2018-03-25T05:23:11.292Z,59.15
2018-03-25T05:25:39.670Z,59.35
2018-03-25T05:28:08.151Z,56.92
2018-03-25T05:30:37.317Z,52.22
2018-03-25T05:33:05.724Z,51.40
2018-03-25T05:35:34.099Z,48.03
2018-03-25T05:38:02.506Z,53.25
2018-03-25T05:40:31.644Z,50.42
2018-03-25T05:43:00.047Z,48.03
2018-03-25T05:45:28.431Z,47.42
2018-03-25T05:47:57.524Z,47.78
2018-03-25T05:50:26.802Z,47.72
2018-03-25T05:52:55.204Z,55.75
2018-03-25T05:55:24.352Z,46.63
2018-03-25T05:57:53.523Z,51.35
2018-03-25T06:00:22.698Z,49.08
2018-03-25T06:02:51.106Z,46.67
2018-03-25T06:05:20.296Z,48.30
2018-03-25T06:07:49.471Z,46.60
2018-03-25T06:10:17.847Z,51.60
2018-03-25T06:12:46.249Z,46.58
2018-03-25T06:15:15.401Z,49.55
2018-03-25T06:17:43.806Z,40.70
2018-03-25T06:20:12.188Z,55.30
2018-03-25T06:22:40.564Z,49.25
2018-03-25T06:25:09.738Z,52.47
2018-03-25T06:27:38.119Z,53.40
2018-03-25T06:30:06.546Z,52.28
2018-03-25T06:32:35.701Z,48.00
2018-03-25T06:35:04.371Z,56.50
2018-03-25T06:37:32.756Z,51.30
2018-03-25T06:40:01.138Z,56.45
2018-03-25T06:42:29.540Z,50.25
2018-03-25T06:44:57.912Z,56.55
2018-03-25T06:47:26.327Z,47.25
2018-03-25T06:49:54.701Z,54.45
2018-03-25T06:52:24.239Z,52.05
2018-03-25T06:54:52.622Z,52.72
2018-03-25T06:57:20.998Z,53.30
2018-03-25T06:59:49.398Z,53.30
2018-03-25T07:02:17.777Z,41.35
2018-03-25T07:04:46.174Z,48.75
2018-03-25T07:07:14.555Z,45.78
2018-03-25T07:09:43.201Z,52.30
2018-03-25T07:12:11.573Z,45.17
2018-03-25T07:14:39.967Z,42.58
2018-03-25T07:17:08.378Z,49.25
2018-03-25T07:19:36.761Z,56.28
2018-03-25T07:22:05.938Z,43.28
2018-03-25T07:24:34.322Z,44.38
2018-03-25T07:27:03.513Z,34.88
2018-03-25T07:29:31.921Z,43.03
2018-03-25T07:32:01.075Z,44.72
2018-03-25T07:34:29.500Z,40.88
2018-03-25T07:36:58.771Z,38.88
2018-03-25T07:39:27.191Z,46.08
2018-03-25T07:41:55.578Z,44.30
2018-03-25T07:44:24.031Z,35.50
2018-03-25T07:46:53.188Z,41.37
2018-03-25T07:49:21.594Z,35.37
2018-03-25T07:51:50.910Z,31.43
2018-03-25T07:54:20.067Z,33.00
2018-03-25T07:56:48.510Z,27.00
2018-03-25T07:59:16.900Z,29.97
2018-03-25T08:01:45.811Z,44.60
2018-03-25T08:04:14.195Z,58.00
2018-03-25T08:06:42.599Z,86.43
2018-03-25T08:09:11.840Z,29.50
2018-03-25T08:11:40.982Z,29.30
2018-03-25T08:14:09.397Z,29.77
2018-03-25T08:16:37.820Z,36.77
2018-03-25T08:19:06.254Z,32.07
2018-03-25T08:21:35.505Z,33.73
2018-03-25T08:24:03.889Z,31.93
2018-03-25T08:26:32.293Z,26.03
2018-03-25T08:29:01.503Z,25.23
2018-03-25T08:31:30.011Z,27.87
2018-03-25T08:39:59.010Z,27.17
2018-03-25T08:42:28.217Z,25.83
2018-03-25T08:44:57.471Z,23.93
2018-03-25T08:47:26.186Z,23.23
2018-03-25T08:49:55.368Z,23.33
2018-03-25T08:52:23.789Z,21.07
2018-03-25T08:54:52.231Z,23.67
2018-03-25T08:57:20.618Z,17.53
2018-03-25T08:59:49.055Z,19.70
2018-03-25T09:02:17.484Z,18.37
2018-03-25T09:04:46.682Z,20.13
2018-03-25T09:07:15.907Z,25.73
2018-03-25T09:09:44.325Z,16.43
2018-03-25T09:12:12.762Z,27.20
2018-03-25T09:14:41.144Z,21.00
2018-03-25T09:17:11.522Z,16.27
2018-03-25T09:19:48.746Z,17.73
2018-03-25T09:22:17.467Z,16.27
2018-03-25T09:28:14.445Z,21.17
2018-03-25T09:30:57.736Z,21.43
2018-03-25T09:33:26.195Z,20.87
2018-03-25T09:35:55.360Z,22.23
2018-03-25T09:38:23.760Z,20.73
2018-03-25T09:40:52.980Z,29.67
2018-03-25T09:43:22.173Z,18.43
2018-03-25T09:45:54.549Z,23.60
2018-03-25T09:48:22.978Z,19.87
2018-03-25T09:50:52.279Z,20.30
2018-03-25T09:53:20.667Z,20.17
2018-03-25T09:55:49.063Z,20.63
2018-03-25T09:58:18.235Z,21.40
2018-03-25T10:00:49.635Z,22.03
2018-03-25T10:03:38.710Z,19.20
2018-03-25T10:06:07.486Z,20.33
2018-03-25T10:08:35.901Z,20.80
2018-03-25T10:11:05.099Z,21.10
2018-03-25T10:13:34.800Z,19.13
2018-03-25T10:16:07.961Z,24.00
2018-03-25T10:18:39.193Z,20.60
2018-03-25T10:21:07.627Z,20.40
2018-03-25T10:23:36.140Z,22.33
2018-03-25T10:26:05.174Z,21.87
2018-03-25T10:28:33.561Z,21.47
2018-03-25T10:31:01.966Z,20.70
2018-03-25T10:33:31.068Z,20.80
2018-03-25T10:35:59.742Z,20.87
2018-03-25T10:38:49.834Z,32.93
2018-03-25T10:41:45.034Z,18.80
2018-03-25T10:47:04.422Z,19.20
2018-03-25T10:49:33.738Z,24.40
2018-03-25T10:52:02.123Z,22.73
2018-03-25T10:54:32.034Z,21.60
2018-03-25T10:57:00.414Z,20.37
2018-03-25T10:59:28.835Z,22.07
2018-03-25T11:01:57.214Z,18.50
2018-03-25T11:04:25.886Z,20.00
2018-03-25T11:06:55.038Z,18.17
2018-03-25T11:09:23.430Z,22.63
2018-03-25T11:11:51.835Z,20.20
2018-03-25T11:14:21.267Z,17.40
2018-03-25T11:16:49.681Z,18.93
2018-03-25T11:19:18.095Z,18.67
2018-03-25T11:21:47.547Z,18.43
2018-03-25T11:24:15.976Z,18.00
2018-03-25T11:26:45.120Z,17.27
2018-03-25T11:29:13.586Z,18.10
2018-03-25T11:31:41.966Z,18.50
2018-03-25T11:34:11.444Z,19.63
2018-03-25T11:36:40.547Z,17.70
2018-03-25T11:39:10.868Z,19.43
2018-03-25T11:41:40.414Z,17.70
2018-03-25T11:44:09.843Z,17.73
2018-03-25T11:46:38.254Z,18.30
2018-03-25T11:49:07.422Z,16.90
2018-03-25T11:51:35.832Z,25.10
2018-03-25T11:54:04.992Z,15.10
2018-03-25T11:56:33.412Z,15.07
2018-03-25T11:59:01.799Z,15.53
2018-03-25T12:01:33.517Z,14.53
2018-03-25T12:04:02.668Z,22.63
2018-03-25T12:06:31.049Z,21.93
2018-03-25T12:08:59.471Z,17.03
2018-03-25T12:11:27.855Z,14.40
2018-03-25T12:13:57.030Z,14.93
2018-03-25T12:16:26.036Z,14.63
2018-03-25T12:18:54.635Z,21.40
2018-03-25T12:21:22.996Z,59.23
2018-03-25T12:23:51.386Z,13.10
2018-03-25T12:26:20.234Z,13.97
2018-03-25T12:28:48.615Z,14.50
2018-03-25T12:31:17.026Z,13.77
2018-03-25T12:33:45.412Z,16.10
2018-03-25T12:36:14.055Z,14.93
2018-03-25T12:38:42.455Z,14.03
2018-03-25T12:41:10.858Z,16.50
2018-03-25T12:43:40.648Z,15.90
2018-03-25T13:06:29.854Z,14.50
2018-03-25T13:09:02.313Z,12.37
2018-03-25T13:11:31.926Z,72.97
2018-03-25T13:14:00.315Z,14.70
2018-03-25T13:16:29.471Z,13.53
2018-03-25T13:18:58.012Z,14.07
2018-03-25T13:21:27.171Z,15.37
2018-03-25T13:23:55.637Z,141.93
2018-03-25T13:26:24.025Z,34.70
2018-03-25T13:28:52.768Z,14.90
2018-03-25T13:31:21.154Z,15.70
2018-03-25T13:33:49.664Z,16.70
2018-03-25T13:36:18.076Z,14.97
2018-03-25T13:38:46.472Z,16.53
2018-03-25T13:41:15.641Z,15.20
2018-03-25T13:43:44.026Z,17.00
2018-03-25T13:46:12.426Z,14.70
2018-03-25T13:48:41.574Z,15.47
2018-03-25T13:51:10.042Z,14.73
2018-03-25T13:53:38.428Z,16.73
2018-03-25T13:56:06.904Z,15.40
2018-03-25T13:58:35.322Z,15.87
2018-03-25T14:01:03.727Z,15.20
2018-03-25T14:03:32.903Z,14.83
2018-03-25T14:06:01.308Z,15.23
2018-03-25T14:08:29.879Z,15.30
2018-03-25T14:10:59.042Z,18.23
2018-03-25T14:13:27.418Z,14.80
2018-03-25T14:15:56.047Z,16.00
2018-03-25T14:21:24.424Z,15.87
2018-03-25T14:23:53.652Z,15.37
2018-03-25T14:26:23.701Z,16.03
2018-03-25T14:28:52.172Z,16.43
2018-03-25T14:31:22.114Z,16.17
2018-03-25T14:33:53.554Z,16.20
2018-03-25T14:36:22.022Z,16.33
2018-03-25T14:38:52.621Z,17.27
2018-03-25T14:41:21.178Z,18.17
2018-03-25T14:43:49.844Z,17.87
2018-03-25T14:46:20.550Z,18.70
2018-03-25T14:48:53.339Z,20.67
2018-03-25T14:51:21.787Z,24.47
2018-03-25T14:53:50.214Z,25.07
2018-03-25T14:56:21.131Z,19.10
2018-03-25T14:58:51.457Z,18.87
2018-03-25T15:01:22.416Z,21.90
2018-03-25T15:03:53.328Z,19.93
2018-03-25T15:06:24.415Z,22.90
2018-03-25T15:08:56.146Z,20.67
2018-03-25T15:11:27.407Z,24.53
2018-03-25T15:13:59.005Z,21.77
2018-03-25T15:16:30.672Z,21.70
2018-03-25T15:19:01.573Z,26.10
2018-03-25T15:21:33.727Z,26.03
2018-03-25T15:24:05.357Z,26.80
2018-03-25T15:26:36.374Z,28.97
2018-03-25T15:29:07.038Z,32.10
2018-03-25T15:31:37.833Z,24.23
2018-03-25T15:34:07.803Z,32.27
2018-03-25T15:36:39.295Z,22.57
2018-03-25T15:39:10.064Z,33.93
2018-03-25T15:41:43.653Z,207.95
2018-03-25T15:44:15.786Z,117.77
2018-03-25T15:46:48.495Z,85.03
2018-03-25T15:49:19.083Z,37.58
2018-03-25T15:51:52.071Z,30.20
2018-03-25T15:54:22.469Z,34.42
2018-03-25T15:56:52.984Z,26.08
2018-03-25T15:59:24.008Z,28.20
2018-03-25T16:01:56.129Z,26.02
2018-03-25T16:04:26.416Z,28.50
2018-03-25T16:06:57.288Z,28.00
2018-03-25T16:09:29.624Z,31.05
2018-03-25T16:12:00.902Z,29.37
2018-03-25T16:14:32.227Z,29.27
2018-03-25T16:17:03.491Z,34.08
2018-03-25T16:19:33.871Z,29.00
2018-03-25T16:22:02.437Z,34.40
2018-03-25T16:24:31.745Z,30.02
2018-03-25T16:27:00.200Z,28.92
2018-03-25T16:29:28.636Z,30.65
2018-03-25T16:31:57.141Z,32.92
2018-03-25T16:34:26.339Z,29.15
2018-03-25T16:36:55.689Z,33.00
2018-03-25T16:39:25.822Z,44.58
2018-03-25T16:41:54.286Z,37.95
2018-03-25T16:44:22.672Z,39.80
2018-03-25T16:46:51.107Z,37.17
2018-03-25T16:49:19.921Z,35.53
2018-03-25T16:51:50.573Z,34.13
2018-03-25T16:54:19.388Z,54.22
2018-03-25T16:56:48.558Z,40.25
2018-03-25T16:59:17.144Z,41.53
2018-03-25T17:01:45.555Z,39.33
2018-03-25T17:04:20.530Z,39.85
2018-03-25T17:06:48.964Z,41.22
2018-03-25T17:09:17.474Z,38.92
2018-03-25T17:11:46.619Z,38.42
2018-03-25T17:14:15.043Z,37.42
2018-03-25T17:16:44.195Z,41.15
2018-03-25T17:19:13.535Z,35.08
2018-03-25T17:21:42.714Z,42.62
2018-03-25T17:24:11.112Z,37.00
2018-03-25T17:26:40.291Z,38.53
2018-03-25T17:29:08.692Z,38.50
2018-03-25T17:31:38.299Z,38.65
2018-03-25T17:34:07.459Z,38.60
2018-03-25T17:36:35.854Z,43.87
2018-03-25T17:39:06.046Z,39.13
2018-03-25T17:41:34.463Z,33.13
2018-03-25T17:44:02.949Z,30.33
2018-03-25T17:46:32.129Z,33.97
2018-03-25T17:49:00.789Z,38.78
2018-03-25T17:51:29.199Z,40.47
2018-03-25T17:53:57.617Z,37.55
2018-03-25T17:56:26.181Z,39.65
2018-03-25T17:58:55.560Z,43.45
2018-03-25T18:01:24.135Z,38.00
2018-03-25T18:03:52.748Z,41.80
2018-03-25T18:06:22.764Z,43.00
2018-03-25T18:08:52.400Z,46.30
2018-03-25T18:11:21.271Z,38.33
2018-03-25T18:13:50.307Z,53.35
2018-03-25T18:16:19.033Z,40.42
2018-03-25T18:18:47.901Z,43.30
2018-03-25T18:21:16.440Z,46.00
2018-03-25T18:23:44.827Z,41.20
2018-03-25T18:26:13.735Z,39.63
2018-03-25T18:28:42.263Z,38.15
2018-03-25T18:31:11.431Z,38.70
2018-03-25T18:33:39.996Z,43.20
2018-03-25T18:36:08.416Z,45.03
2018-03-25T18:38:37.622Z,44.63
2018-03-25T18:41:06.973Z,46.45
2018-03-25T18:43:35.720Z,37.25
2018-03-25T18:46:04.117Z,40.90
2018-03-25T18:48:32.664Z,39.13
2018-03-25T18:51:01.124Z,39.60
2018-03-25T18:53:29.564Z,45.78
2018-03-25T18:55:58.678Z,40.75
2018-03-25T18:58:27.083Z,36.35
2018-03-25T19:00:55.845Z,43.08
2018-03-25T19:03:24.227Z,41.60
2018-03-25T19:05:52.698Z,41.35
2018-03-25T19:08:22.607Z,42.30
2018-03-25T19:10:51.015Z,45.25
2018-03-25T19:13:27.169Z,39.80
2018-03-25T19:16:02.942Z,41.65
2018-03-25T19:18:46.034Z,42.17
2018-03-25T19:21:16.640Z,52.95
2018-03-25T19:23:45.263Z,54.00
2018-03-25T19:26:13.881Z,41.90
2018-03-25T19:28:43.336Z,47.62
2018-03-25T19:31:11.815Z,46.80
2018-03-25T19:33:40.470Z,48.60
2018-03-25T19:36:08.907Z,48.95
2018-03-25T19:38:37.338Z,41.58
2018-03-25T19:41:05.734Z,50.25
2018-03-25T19:43:34.859Z,46.78
2018-03-25T19:46:03.420Z,48.25
2018-03-25T19:48:32.292Z,44.95
2018-03-25T19:51:01.015Z,42.55
2018-03-25T19:53:29.441Z,41.65
2018-03-25T19:55:58.719Z,42.05
2018-03-25T19:58:27.909Z,43.67
2018-03-25T20:00:56.514Z,45.47
2018-03-25T20:03:25.140Z,43.28
2018-03-25T20:05:53.869Z,48.80
2018-03-25T20:08:22.325Z,46.55
2018-03-25T20:10:51.296Z,47.75
2018-03-25T20:13:20.083Z,42.67
2018-03-25T20:15:49.798Z,51.85
2018-03-25T20:18:18.553Z,47.38
2018-03-25T20:20:47.147Z,44.50
2018-03-25T20:23:15.952Z,44.45
2018-03-25T20:25:44.804Z,40.65
2018-03-25T20:28:13.238Z,38.85
2018-03-25T20:30:41.792Z,45.95
2018-03-25T20:33:10.284Z,41.20
2018-03-25T20:35:38.695Z,42.95
2018-03-25T20:38:07.124Z,46.58
2018-03-25T20:40:35.509Z,38.42
2018-03-25T20:43:03.881Z,43.53
2018-03-25T20:45:32.494Z,43.05
2018-03-25T20:48:17.917Z,58.22
2018-03-25T20:51:00.332Z,44.95
2018-03-25T20:53:32.492Z,35.40
2018-03-25T20:56:06.239Z,38.80
2018-03-25T20:58:35.033Z,37.85
2018-03-25T21:01:03.434Z,46.15
2018-03-25T21:03:32.090Z,40.90
2018-03-25T21:06:00.888Z,43.20
2018-03-25T21:08:30.817Z,43.55
2018-03-25T21:11:00.401Z,39.55
2018-03-25T21:13:31.085Z,40.15
2018-03-25T21:16:02.298Z,40.95
2018-03-25T21:18:43.411Z,34.33
2018-03-25T21:21:24.096Z,47.88
2018-03-25T21:23:53.732Z,39.97
2018-03-25T21:26:22.122Z,44.55
2018-03-25T21:28:50.770Z,44.22
2018-03-25T21:31:19.155Z,56.95
2018-03-25T21:33:47.574Z,47.80
2018-03-25T21:36:16.773Z,44.25
2018-03-25T21:38:45.145Z,42.45
2018-03-25T21:41:26.778Z,45.40
2018-03-25T21:43:55.946Z,45.15
2018-03-25T21:46:24.596Z,47.05
2018-03-25T21:48:52.981Z,43.13
2018-03-25T21:51:21.357Z,56.85
2018-03-25T21:53:50.318Z,38.92
2018-03-25T21:56:18.723Z,43.42
2018-03-25T21:58:47.234Z,48.20
2018-03-25T22:01:15.671Z,44.17
2018-03-25T22:03:44.387Z,48.38
2018-03-25T22:06:12.774Z,41.63
2018-03-25T22:08:41.158Z,51.80
2018-03-25T22:11:09.569Z,42.80
2018-03-25T22:13:37.947Z,40.65
2018-03-25T22:16:07.125Z,40.03
2018-03-25T22:18:54.014Z,47.83
2018-03-25T22:21:22.719Z,45.25
2018-03-25T22:23:51.870Z,42.03
2018-03-25T22:26:20.314Z,38.95
2018-03-25T22:28:49.560Z,44.95
2018-03-25T22:31:18.132Z,40.70
2018-03-25T22:33:46.514Z,42.65
2018-03-25T22:36:14.886Z,58.75
2018-03-25T22:38:43.592Z,41.35
2018-03-25T22:41:11.974Z,44.20
2018-03-25T22:43:40.362Z,39.10
2018-03-25T22:46:08.938Z,44.70
2018-03-25T22:48:41.405Z,43.60
2018-03-25T22:51:15.052Z,47.90
2018-03-25T22:53:45.341Z,52.67
2018-03-25T22:56:13.795Z,49.10
2018-03-25T22:58:42.211Z,42.90
2018-03-25T23:01:11.741Z,48.22
2018-03-25T23:03:40.777Z,45.10
2018-03-25T23:06:09.182Z,56.40
2018-03-25T23:08:39.099Z,53.30
2018-03-25T23:11:08.277Z,52.60
2018-03-25T23:13:37.235Z,55.40
2018-03-25T23:16:05.610Z,53.60
2018-03-25T23:18:34.496Z,49.03
2018-03-25T23:21:03.041Z,51.58
2018-03-25T23:23:32.126Z,46.53
2018-03-25T23:26:00.523Z,52.97
2018-03-25T23:28:30.739Z,54.25
2018-03-25T23:30:59.519Z,43.75
2018-03-25T23:33:28.417Z,48.03
2018-03-25T23:35:57.719Z,48.28
2018-03-25T23:38:26.147Z,58.45
2018-03-25T23:40:55.062Z,50.75
2018-03-25T23:43:25.063Z,48.38
2018-03-25T23:45:53.441Z,47.97
2018-03-25T23:48:21.940Z,44.65
2018-03-25T23:50:50.320Z,50.83
2018-03-25T23:53:19.104Z,58.13
2018-03-25T23:55:47.711Z,52.88
2018-03-25T23:58:16.090Z,47.72
